sensor_id;sensor_type;location;lat;lon;timestamp;P1;durP1;ratioP1;P2;durP2;ratioP2
17826;SDS011;9038;48.208;16.308;2024-02-21T00:01:37;8.67;;;2.70;;
17826;SDS011;9038;48.208;16.308;2024-02-21T00:03:39;5.77;;;2.77;;
17826;SDS011;9038;48.208;16.308;2024-02-21T00:05:41;9.53;;;2.83;;
17826;SDS011;9038;48.208;16.308;2024-02-21T00:07:43;5.47;;;2.90;;
17826;SDS011;9038;48.208;16.308;2024-02-21T00:09:45;5.77;;;2.43;;
17826;SDS011;9038;48.208;16.308;2024-02-21T00:11:47;5.63;;;2.70;;
17826;SDS011;9038;48.208;16.308;2024-02-21T00:13:50;5.23;;;2.40;;
17826;SDS011;9038;48.208;16.308;2024-02-21T00:15:52;7.37;;;2.73;;
17826;SDS011;9038;48.208;16.308;2024-02-21T00:17:54;4.47;;;2.40;;
17826;SDS011;9038;48.208;16.308;2024-02-21T00:19:57;5.93;;;2.57;;
17826;SDS011;9038;48.208;16.308;2024-02-21T00:21:58;6.33;;;2.63;;
17826;SDS011;9038;48.208;16.308;2024-02-21T00:24:00;5.80;;;2.80;;
17826;SDS011;9038;48.208;16.308;2024-02-21T00:26:02;6.00;;;2.43;;
17826;SDS011;9038;48.208;16.308;2024-02-21T00:28:04;5.67;;;2.50;;
17826;SDS011;9038;48.208;16.308;2024-02-21T00:30:08;7.77;;;2.97;;
17826;SDS011;9038;48.208;16.308;2024-02-21T00:32:10;5.90;;;2.80;;
17826;SDS011;9038;48.208;16.308;2024-02-21T00:34:12;7.87;;;2.60;;
17826;SDS011;9038;48.208;16.308;2024-02-21T00:36:14;5.97;;;2.70;;
17826;SDS011;9038;48.208;16.308;2024-02-21T00:38:16;7.87;;;2.80;;
17826;SDS011;9038;48.208;16.308;2024-02-21T00:40:18;7.37;;;2.63;;
17826;SDS011;9038;48.208;16.308;2024-02-21T00:42:22;7.87;;;2.50;;
17826;SDS011;9038;48.208;16.308;2024-02-21T00:44:24;6.77;;;2.40;;
17826;SDS011;9038;48.208;16.308;2024-02-21T00:46:27;8.10;;;2.83;;
17826;SDS011;9038;48.208;16.308;2024-02-21T00:48:29;6.03;;;2.63;;
17826;SDS011;9038;48.208;16.308;2024-02-21T00:50:32;6.43;;;2.63;;
17826;SDS011;9038;48.208;16.308;2024-02-21T00:52:34;7.43;;;2.23;;
17826;SDS011;9038;48.208;16.308;2024-02-21T00:54:36;4.83;;;2.40;;
17826;SDS011;9038;48.208;16.308;2024-02-21T00:56:38;4.90;;;2.30;;
17826;SDS011;9038;48.208;16.308;2024-02-21T00:58:40;4.40;;;2.93;;
17826;SDS011;9038;48.208;16.308;2024-02-21T01:00:43;7.80;;;2.60;;
17826;SDS011;9038;48.208;16.308;2024-02-21T01:02:46;5.07;;;2.77;;
17826;SDS011;9038;48.208;16.308;2024-02-21T01:04:47;4.60;;;2.30;;
17826;SDS011;9038;48.208;16.308;2024-02-21T01:06:49;6.90;;;2.50;;
17826;SDS011;9038;48.208;16.308;2024-02-21T01:08:51;6.10;;;2.37;;
17826;SDS011;9038;48.208;16.308;2024-02-21T01:10:53;12.23;;;3.53;;
17826;SDS011;9038;48.208;16.308;2024-02-21T01:12:55;6.17;;;2.80;;
17826;SDS011;9038;48.208;16.308;2024-02-21T01:14:57;6.20;;;2.53;;
17826;SDS011;9038;48.208;16.308;2024-02-21T01:16:59;5.67;;;2.23;;
17826;SDS011;9038;48.208;16.308;2024-02-21T01:19:03;7.53;;;2.53;;
17826;SDS011;9038;48.208;16.308;2024-02-21T01:21:04;7.73;;;2.53;;
17826;SDS011;9038;48.208;16.308;2024-02-21T01:23:07;6.30;;;2.80;;
17826;SDS011;9038;48.208;16.308;2024-02-21T01:25:09;9.23;;;2.83;;
17826;SDS011;9038;48.208;16.308;2024-02-21T01:27:11;5.70;;;2.77;;
17826;SDS011;9038;48.208;16.308;2024-02-21T01:29:13;9.03;;;2.90;;
17826;SDS011;9038;48.208;16.308;2024-02-21T01:31:14;7.90;;;2.23;;
17826;SDS011;9038;48.208;16.308;2024-02-21T01:33:16;8.50;;;2.53;;
17826;SDS011;9038;48.208;16.308;2024-02-21T01:35:20;6.00;;;2.20;;
17826;SDS011;9038;48.208;16.308;2024-02-21T01:37:22;6.53;;;2.20;;
17826;SDS011;9038;48.208;16.308;2024-02-21T01:39:25;7.03;;;2.93;;
17826;SDS011;9038;48.208;16.308;2024-02-21T01:41:29;7.83;;;2.40;;
17826;SDS011;9038;48.208;16.308;2024-02-21T01:43:31;9.40;;;2.63;;
17826;SDS011;9038;48.208;16.308;2024-02-21T01:45:33;8.37;;;2.63;;
17826;SDS011;9038;48.208;16.308;2024-02-21T01:47:36;7.43;;;2.80;;
17826;SDS011;9038;48.208;16.308;2024-02-21T01:49:37;6.63;;;2.80;;
17826;SDS011;9038;48.208;16.308;2024-02-21T01:51:41;7.90;;;2.70;;
17826;SDS011;9038;48.208;16.308;2024-02-21T01:53:43;6.20;;;2.80;;
17826;SDS011;9038;48.208;16.308;2024-02-21T01:55:46;8.37;;;2.97;;
17826;SDS011;9038;48.208;16.308;2024-02-21T01:57:48;7.57;;;2.70;;
17826;SDS011;9038;48.208;16.308;2024-02-21T01:59:51;4.80;;;2.20;;
17826;SDS011;9038;48.208;16.308;2024-02-21T02:01:53;5.90;;;2.30;;
17826;SDS011;9038;48.208;16.308;2024-02-21T02:03:57;6.97;;;3.20;;
17826;SDS011;9038;48.208;16.308;2024-02-21T02:06:01;7.23;;;2.50;;
17826;SDS011;9038;48.208;16.308;2024-02-21T02:08:04;6.27;;;3.03;;
17826;SDS011;9038;48.208;16.308;2024-02-21T02:10:08;7.57;;;2.53;;
17826;SDS011;9038;48.208;16.308;2024-02-21T02:12:11;5.00;;;3.03;;
17826;SDS011;9038;48.208;16.308;2024-02-21T02:14:13;5.93;;;3.00;;
17826;SDS011;9038;48.208;16.308;2024-02-21T02:16:15;9.87;;;3.17;;
17826;SDS011;9038;48.208;16.308;2024-02-21T02:18:17;4.53;;;2.20;;
17826;SDS011;9038;48.208;16.308;2024-02-21T02:20:20;7.53;;;3.03;;
17826;SDS011;9038;48.208;16.308;2024-02-21T02:22:22;5.77;;;2.50;;
17826;SDS011;9038;48.208;16.308;2024-02-21T02:24:26;6.13;;;2.83;;
17826;SDS011;9038;48.208;16.308;2024-02-21T02:26:28;5.20;;;2.37;;
17826;SDS011;9038;48.208;16.308;2024-02-21T02:28:30;5.20;;;2.03;;
17826;SDS011;9038;48.208;16.308;2024-02-21T02:30:32;7.00;;;2.83;;
17826;SDS011;9038;48.208;16.308;2024-02-21T02:32:34;5.43;;;2.60;;
17826;SDS011;9038;48.208;16.308;2024-02-21T02:34:36;7.30;;;2.47;;
17826;SDS011;9038;48.208;16.308;2024-02-21T02:36:38;6.87;;;2.63;;
17826;SDS011;9038;48.208;16.308;2024-02-21T02:38:40;7.30;;;2.10;;
17826;SDS011;9038;48.208;16.308;2024-02-21T02:40:44;5.10;;;2.63;;
17826;SDS011;9038;48.208;16.308;2024-02-21T02:42:46;5.13;;;2.50;;
17826;SDS011;9038;48.208;16.308;2024-02-21T02:44:49;6.90;;;2.57;;
17826;SDS011;9038;48.208;16.308;2024-02-21T02:46:51;4.83;;;2.10;;
17826;SDS011;9038;48.208;16.308;2024-02-21T02:48:55;6.50;;;2.67;;
17826;SDS011;9038;48.208;16.308;2024-02-21T02:50:57;4.67;;;2.10;;
17826;SDS011;9038;48.208;16.308;2024-02-21T02:52:59;4.17;;;2.50;;
17826;SDS011;9038;48.208;16.308;2024-02-21T02:55:01;9.63;;;2.57;;
17826;SDS011;9038;48.208;16.308;2024-02-21T02:57:04;5.13;;;2.60;;
17826;SDS011;9038;48.208;16.308;2024-02-21T02:59:07;6.03;;;2.50;;
17826;SDS011;9038;48.208;16.308;2024-02-21T03:01:09;6.67;;;2.67;;
17826;SDS011;9038;48.208;16.308;2024-02-21T03:03:11;7.60;;;2.83;;
17826;SDS011;9038;48.208;16.308;2024-02-21T03:05:13;6.43;;;2.37;;
17826;SDS011;9038;48.208;16.308;2024-02-21T03:07:15;8.17;;;2.67;;
17826;SDS011;9038;48.208;16.308;2024-02-21T03:09:17;9.03;;;2.90;;
17826;SDS011;9038;48.208;16.308;2024-02-21T03:11:19;8.17;;;2.80;;
17826;SDS011;9038;48.208;16.308;2024-02-21T03:13:30;8.13;;;2.50;;
17826;SDS011;9038;48.208;16.308;2024-02-21T03:15:32;4.57;;;2.30;;
17826;SDS011;9038;48.208;16.308;2024-02-21T03:17:34;5.80;;;2.13;;
17826;SDS011;9038;48.208;16.308;2024-02-21T03:19:36;6.57;;;2.40;;
17826;SDS011;9038;48.208;16.308;2024-02-21T03:21:38;7.13;;;2.77;;
17826;SDS011;9038;48.208;16.308;2024-02-21T03:23:40;5.93;;;2.60;;
17826;SDS011;9038;48.208;16.308;2024-02-21T03:25:42;5.77;;;2.87;;
17826;SDS011;9038;48.208;16.308;2024-02-21T03:27:45;6.87;;;2.70;;
17826;SDS011;9038;48.208;16.308;2024-02-21T03:29:48;5.10;;;2.50;;
17826;SDS011;9038;48.208;16.308;2024-02-21T03:31:50;6.40;;;2.80;;
17826;SDS011;9038;48.208;16.308;2024-02-21T03:33:52;6.63;;;2.80;;
17826;SDS011;9038;48.208;16.308;2024-02-21T03:35:55;7.40;;;2.60;;
17826;SDS011;9038;48.208;16.308;2024-02-21T03:37:57;6.87;;;2.43;;
17826;SDS011;9038;48.208;16.308;2024-02-21T03:39:59;8.10;;;2.67;;
17826;SDS011;9038;48.208;16.308;2024-02-21T03:42:02;7.17;;;2.57;;
17826;SDS011;9038;48.208;16.308;2024-02-21T03:44:04;5.60;;;3.00;;
17826;SDS011;9038;48.208;16.308;2024-02-21T03:46:08;5.70;;;2.37;;
17826;SDS011;9038;48.208;16.308;2024-02-21T03:48:10;6.20;;;2.50;;
17826;SDS011;9038;48.208;16.308;2024-02-21T03:50:12;11.30;;;3.23;;
17826;SDS011;9038;48.208;16.308;2024-02-21T03:52:15;8.87;;;2.57;;
17826;SDS011;9038;48.208;16.308;2024-02-21T03:54:17;6.17;;;2.70;;
17826;SDS011;9038;48.208;16.308;2024-02-21T03:56:19;7.07;;;2.63;;
17826;SDS011;9038;48.208;16.308;2024-02-21T03:58:21;5.40;;;2.40;;
17826;SDS011;9038;48.208;16.308;2024-02-21T04:00:23;6.73;;;2.73;;
17826;SDS011;9038;48.208;16.308;2024-02-21T04:02:27;6.50;;;2.77;;
17826;SDS011;9038;48.208;16.308;2024-02-21T04:04:29;7.77;;;2.83;;
17826;SDS011;9038;48.208;16.308;2024-02-21T04:06:31;6.23;;;2.87;;
17826;SDS011;9038;48.208;16.308;2024-02-21T04:08:33;7.60;;;2.70;;
17826;SDS011;9038;48.208;16.308;2024-02-21T04:10:36;10.80;;;2.57;;
17826;SDS011;9038;48.208;16.308;2024-02-21T04:12:38;6.70;;;2.93;;
17826;SDS011;9038;48.208;16.308;2024-02-21T04:14:40;5.00;;;2.63;;
17826;SDS011;9038;48.208;16.308;2024-02-21T04:16:42;5.87;;;2.67;;
17826;SDS011;9038;48.208;16.308;2024-02-21T04:18:46;4.77;;;2.50;;
17826;SDS011;9038;48.208;16.308;2024-02-21T04:20:48;9.57;;;3.07;;
17826;SDS011;9038;48.208;16.308;2024-02-21T04:22:50;9.90;;;3.30;;
17826;SDS011;9038;48.208;16.308;2024-02-21T04:24:52;5.87;;;2.70;;
17826;SDS011;9038;48.208;16.308;2024-02-21T04:26:54;6.60;;;3.20;;
17826;SDS011;9038;48.208;16.308;2024-02-21T04:28:56;7.57;;;2.90;;
17826;SDS011;9038;48.208;16.308;2024-02-21T04:30:57;9.00;;;3.00;;
17826;SDS011;9038;48.208;16.308;2024-02-21T04:33:00;10.43;;;3.37;;
17826;SDS011;9038;48.208;16.308;2024-02-21T04:35:03;5.87;;;2.43;;
17826;SDS011;9038;48.208;16.308;2024-02-21T04:37:04;8.07;;;3.00;;
17826;SDS011;9038;48.208;16.308;2024-02-21T04:39:07;7.97;;;2.73;;
17826;SDS011;9038;48.208;16.308;2024-02-21T04:41:09;9.73;;;2.97;;
17826;SDS011;9038;48.208;16.308;2024-02-21T04:43:11;5.27;;;2.63;;
17826;SDS011;9038;48.208;16.308;2024-02-21T04:45:12;7.60;;;2.43;;
17826;SDS011;9038;48.208;16.308;2024-02-21T04:47:14;7.53;;;3.20;;
17826;SDS011;9038;48.208;16.308;2024-02-21T04:49:16;9.73;;;3.10;;
17826;SDS011;9038;48.208;16.308;2024-02-21T04:51:20;9.70;;;2.80;;
17826;SDS011;9038;48.208;16.308;2024-02-21T04:53:23;5.27;;;2.83;;
17826;SDS011;9038;48.208;16.308;2024-02-21T04:55:25;6.93;;;3.00;;
17826;SDS011;9038;48.208;16.308;2024-02-21T04:57:26;11.00;;;3.03;;
17826;SDS011;9038;48.208;16.308;2024-02-21T04:59:28;7.03;;;2.80;;
17826;SDS011;9038;48.208;16.308;2024-02-21T05:01:30;5.10;;;2.60;;
17826;SDS011;9038;48.208;16.308;2024-02-21T05:03:33;6.13;;;2.80;;
17826;SDS011;9038;48.208;16.308;2024-02-21T05:05:34;6.07;;;2.73;;
17826;SDS011;9038;48.208;16.308;2024-02-21T05:07:37;6.50;;;2.40;;
17826;SDS011;9038;48.208;16.308;2024-02-21T05:09:41;5.00;;;2.73;;
17826;SDS011;9038;48.208;16.308;2024-02-21T05:11:43;5.13;;;2.30;;
17826;SDS011;9038;48.208;16.308;2024-02-21T05:13:46;7.13;;;2.77;;
17826;SDS011;9038;48.208;16.308;2024-02-21T05:15:48;6.33;;;2.53;;
17826;SDS011;9038;48.208;16.308;2024-02-21T05:17:50;9.67;;;2.93;;
17826;SDS011;9038;48.208;16.308;2024-02-21T05:19:52;8.27;;;2.63;;
17826;SDS011;9038;48.208;16.308;2024-02-21T05:21:55;5.90;;;2.40;;
17826;SDS011;9038;48.208;16.308;2024-02-21T05:23:58;7.07;;;2.40;;
17826;SDS011;9038;48.208;16.308;2024-02-21T05:26:01;5.97;;;2.40;;
17826;SDS011;9038;48.208;16.308;2024-02-21T05:28:03;7.50;;;2.07;;
17826;SDS011;9038;48.208;16.308;2024-02-21T05:30:06;5.67;;;2.30;;
17826;SDS011;9038;48.208;16.308;2024-02-21T05:32:10;5.33;;;2.60;;
17826;SDS011;9038;48.208;16.308;2024-02-21T05:34:12;4.20;;;2.37;;
17826;SDS011;9038;48.208;16.308;2024-02-21T05:36:14;9.20;;;2.77;;
17826;SDS011;9038;48.208;16.308;2024-02-21T05:38:16;6.27;;;2.10;;
17826;SDS011;9038;48.208;16.308;2024-02-21T05:40:20;4.63;;;2.20;;
17826;SDS011;9038;48.208;16.308;2024-02-21T05:42:22;5.57;;;2.30;;
17826;SDS011;9038;48.208;16.308;2024-02-21T05:44:24;4.27;;;2.07;;
17826;SDS011;9038;48.208;16.308;2024-02-21T05:46:27;4.97;;;2.17;;
17826;SDS011;9038;48.208;16.308;2024-02-21T05:48:29;5.63;;;2.00;;
17826;SDS011;9038;48.208;16.308;2024-02-21T05:50:31;8.50;;;2.77;;
17826;SDS011;9038;48.208;16.308;2024-02-21T05:52:33;4.47;;;1.83;;
17826;SDS011;9038;48.208;16.308;2024-02-21T05:54:37;8.17;;;2.57;;
17826;SDS011;9038;48.208;16.308;2024-02-21T05:56:44;6.90;;;2.07;;
17826;SDS011;9038;48.208;16.308;2024-02-21T05:58:46;7.37;;;2.70;;
17826;SDS011;9038;48.208;16.308;2024-02-21T06:00:48;6.67;;;2.20;;
17826;SDS011;9038;48.208;16.308;2024-02-21T06:02:50;6.23;;;2.10;;
17826;SDS011;9038;48.208;16.308;2024-02-21T06:04:52;3.73;;;1.87;;
17826;SDS011;9038;48.208;16.308;2024-02-21T06:06:54;6.10;;;2.07;;
17826;SDS011;9038;48.208;16.308;2024-02-21T06:08:56;5.50;;;2.23;;
17826;SDS011;9038;48.208;16.308;2024-02-21T06:10:59;5.03;;;1.77;;
17826;SDS011;9038;48.208;16.308;2024-02-21T06:13:02;7.13;;;2.37;;
17826;SDS011;9038;48.208;16.308;2024-02-21T06:15:05;5.43;;;2.23;;
17826;SDS011;9038;48.208;16.308;2024-02-21T06:17:07;5.33;;;2.20;;
17826;SDS011;9038;48.208;16.308;2024-02-21T06:19:09;5.47;;;2.17;;
17826;SDS011;9038;48.208;16.308;2024-02-21T06:21:11;5.73;;;1.80;;
17826;SDS011;9038;48.208;16.308;2024-02-21T06:23:14;4.83;;;2.20;;
17826;SDS011;9038;48.208;16.308;2024-02-21T06:25:17;8.07;;;2.47;;
17826;SDS011;9038;48.208;16.308;2024-02-21T06:27:19;3.70;;;2.03;;
17826;SDS011;9038;48.208;16.308;2024-02-21T06:29:22;7.43;;;2.93;;
17826;SDS011;9038;48.208;16.308;2024-02-21T06:31:25;4.43;;;1.90;;
17826;SDS011;9038;48.208;16.308;2024-02-21T06:33:26;4.53;;;2.13;;
17826;SDS011;9038;48.208;16.308;2024-02-21T06:35:28;4.77;;;2.10;;
17826;SDS011;9038;48.208;16.308;2024-02-21T06:37:30;4.37;;;1.90;;
17826;SDS011;9038;48.208;16.308;2024-02-21T06:39:33;5.73;;;1.80;;
17826;SDS011;9038;48.208;16.308;2024-02-21T06:41:37;3.93;;;1.90;;
17826;SDS011;9038;48.208;16.308;2024-02-21T06:43:40;5.60;;;2.23;;
17826;SDS011;9038;48.208;16.308;2024-02-21T06:45:43;5.73;;;2.13;;
17826;SDS011;9038;48.208;16.308;2024-02-21T06:47:47;8.37;;;2.47;;
17826;SDS011;9038;48.208;16.308;2024-02-21T06:49:49;5.13;;;2.13;;
17826;SDS011;9038;48.208;16.308;2024-02-21T06:51:52;6.57;;;2.40;;
17826;SDS011;9038;48.208;16.308;2024-02-21T06:53:54;5.13;;;2.07;;
17826;SDS011;9038;48.208;16.308;2024-02-21T06:55:56;6.47;;;2.17;;
17826;SDS011;9038;48.208;16.308;2024-02-21T06:57:58;6.23;;;2.30;;
17826;SDS011;9038;48.208;16.308;2024-02-21T07:00:01;5.40;;;1.87;;
17826;SDS011;9038;48.208;16.308;2024-02-21T07:02:09;4.67;;;2.20;;
17826;SDS011;9038;48.208;16.308;2024-02-21T07:04:11;5.03;;;2.20;;
17826;SDS011;9038;48.208;16.308;2024-02-21T07:06:13;4.60;;;1.83;;
17826;SDS011;9038;48.208;16.308;2024-02-21T07:08:15;2.87;;;1.73;;
17826;SDS011;9038;48.208;16.308;2024-02-21T07:10:18;3.90;;;2.10;;
17826;SDS011;9038;48.208;16.308;2024-02-21T07:12:20;2.80;;;1.60;;
17826;SDS011;9038;48.208;16.308;2024-02-21T07:14:22;10.37;;;2.43;;
17826;SDS011;9038;48.208;16.308;2024-02-21T07:16:24;3.57;;;1.70;;
17826;SDS011;9038;48.208;16.308;2024-02-21T07:18:28;2.70;;;1.87;;
17826;SDS011;9038;48.208;16.308;2024-02-21T07:20:30;5.57;;;2.27;;
17826;SDS011;9038;48.208;16.308;2024-02-21T07:22:33;6.17;;;1.90;;
17826;SDS011;9038;48.208;16.308;2024-02-21T07:24:35;4.90;;;2.10;;
17826;SDS011;9038;48.208;16.308;2024-02-21T07:26:40;7.57;;;2.17;;
17826;SDS011;9038;48.208;16.308;2024-02-21T07:28:43;4.10;;;2.33;;
17826;SDS011;9038;48.208;16.308;2024-02-21T07:30:46;5.40;;;2.00;;
17826;SDS011;9038;48.208;16.308;2024-02-21T07:32:49;5.03;;;1.63;;
17826;SDS011;9038;48.208;16.308;2024-02-21T07:34:52;3.77;;;1.70;;
17826;SDS011;9038;48.208;16.308;2024-02-21T07:36:55;5.60;;;2.13;;
17826;SDS011;9038;48.208;16.308;2024-02-21T07:38:57;3.50;;;1.87;;
17826;SDS011;9038;48.208;16.308;2024-02-21T07:40:59;3.70;;;1.57;;
17826;SDS011;9038;48.208;16.308;2024-02-21T07:43:01;5.33;;;1.93;;
17826;SDS011;9038;48.208;16.308;2024-02-21T07:45:04;6.20;;;2.07;;
17826;SDS011;9038;48.208;16.308;2024-02-21T07:47:06;7.57;;;2.03;;
17826;SDS011;9038;48.208;16.308;2024-02-21T07:49:08;5.10;;;1.60;;
17826;SDS011;9038;48.208;16.308;2024-02-21T07:51:12;6.30;;;1.63;;
17826;SDS011;9038;48.208;16.308;2024-02-21T07:53:16;4.97;;;1.60;;
17826;SDS011;9038;48.208;16.308;2024-02-21T07:55:19;5.00;;;2.17;;
17826;SDS011;9038;48.208;16.308;2024-02-21T07:57:21;4.00;;;1.67;;
17826;SDS011;9038;48.208;16.308;2024-02-21T07:59:23;5.93;;;2.13;;
17826;SDS011;9038;48.208;16.308;2024-02-21T08:01:25;4.13;;;1.70;;
17826;SDS011;9038;48.208;16.308;2024-02-21T08:03:27;4.23;;;1.33;;
17826;SDS011;9038;48.208;16.308;2024-02-21T08:05:29;4.20;;;1.60;;
17826;SDS011;9038;48.208;16.308;2024-02-21T08:07:32;4.10;;;1.67;;
17826;SDS011;9038;48.208;16.308;2024-02-21T08:09:35;5.30;;;1.63;;
17826;SDS011;9038;48.208;16.308;2024-02-21T08:11:38;4.53;;;1.60;;
17826;SDS011;9038;48.208;16.308;2024-02-21T08:13:40;3.13;;;1.50;;
17826;SDS011;9038;48.208;16.308;2024-02-21T08:15:41;3.83;;;1.60;;
17826;SDS011;9038;48.208;16.308;2024-02-21T08:17:43;3.83;;;1.60;;
17826;SDS011;9038;48.208;16.308;2024-02-21T08:19:45;3.90;;;1.43;;
17826;SDS011;9038;48.208;16.308;2024-02-21T08:21:47;3.03;;;1.33;;
17826;SDS011;9038;48.208;16.308;2024-02-21T08:23:51;3.13;;;1.50;;
17826;SDS011;9038;48.208;16.308;2024-02-21T08:25:54;3.17;;;1.70;;
17826;SDS011;9038;48.208;16.308;2024-02-21T08:27:57;2.97;;;1.33;;
17826;SDS011;9038;48.208;16.308;2024-02-21T08:29:58;4.13;;;1.60;;
17826;SDS011;9038;48.208;16.308;2024-02-21T08:32:00;4.27;;;1.53;;
17826;SDS011;9038;48.208;16.308;2024-02-21T08:34:02;4.20;;;1.53;;
17826;SDS011;9038;48.208;16.308;2024-02-21T08:36:05;3.93;;;1.60;;
17826;SDS011;9038;48.208;16.308;2024-02-21T08:38:08;5.63;;;1.83;;
17826;SDS011;9038;48.208;16.308;2024-02-21T08:40:12;4.83;;;1.63;;
17826;SDS011;9038;48.208;16.308;2024-02-21T08:42:17;7.33;;;1.97;;
17826;SDS011;9038;48.208;16.308;2024-02-21T08:44:19;4.63;;;1.60;;
17826;SDS011;9038;48.208;16.308;2024-02-21T08:46:21;5.77;;;1.60;;
17826;SDS011;9038;48.208;16.308;2024-02-21T08:48:24;3.70;;;1.50;;
17826;SDS011;9038;48.208;16.308;2024-02-21T08:50:26;3.73;;;1.40;;
17826;SDS011;9038;48.208;16.308;2024-02-21T08:52:28;4.33;;;1.40;;
17826;SDS011;9038;48.208;16.308;2024-02-21T08:54:31;5.37;;;2.67;;
17826;SDS011;9038;48.208;16.308;2024-02-21T08:56:35;3.90;;;1.60;;
17826;SDS011;9038;48.208;16.308;2024-02-21T08:58:38;4.90;;;1.77;;
17826;SDS011;9038;48.208;16.308;2024-02-21T09:00:40;6.77;;;1.70;;
17826;SDS011;9038;48.208;16.308;2024-02-21T09:02:42;4.40;;;1.63;;
17826;SDS011;9038;48.208;16.308;2024-02-21T09:04:44;5.53;;;1.80;;
17826;SDS011;9038;48.208;16.308;2024-02-21T09:06:46;3.60;;;1.43;;
17826;SDS011;9038;48.208;16.308;2024-02-21T09:08:48;2.77;;;1.50;;
17826;SDS011;9038;48.208;16.308;2024-02-21T09:10:51;5.23;;;1.90;;
17826;SDS011;9038;48.208;16.308;2024-02-21T09:12:54;3.50;;;1.47;;
17826;SDS011;9038;48.208;16.308;2024-02-21T09:14:57;3.73;;;1.57;;
17826;SDS011;9038;48.208;16.308;2024-02-21T09:16:59;3.10;;;1.50;;
17826;SDS011;9038;48.208;16.308;2024-02-21T09:19:01;7.57;;;1.88;;
17826;SDS011;9038;48.208;16.308;2024-02-21T09:21:03;4.80;;;1.80;;
17826;SDS011;9038;48.208;16.308;2024-02-21T09:23:05;3.88;;;1.50;;
17826;SDS011;9038;48.208;16.308;2024-02-21T09:25:07;4.10;;;1.30;;
17826;SDS011;9038;48.208;16.308;2024-02-21T09:27:11;6.30;;;1.67;;
17826;SDS011;9038;48.208;16.308;2024-02-21T09:29:15;5.53;;;1.63;;
17826;SDS011;9038;48.208;16.308;2024-02-21T09:31:17;4.22;;;1.58;;
17826;SDS011;9038;48.208;16.308;2024-02-21T09:33:19;3.97;;;1.65;;
17826;SDS011;9038;48.208;16.308;2024-02-21T09:35:22;4.82;;;1.77;;
17826;SDS011;9038;48.208;16.308;2024-02-21T09:37:26;4.07;;;1.67;;
17826;SDS011;9038;48.208;16.308;2024-02-21T09:39:28;4.68;;;1.65;;
17826;SDS011;9038;48.208;16.308;2024-02-21T09:41:31;3.72;;;1.33;;
17826;SDS011;9038;48.208;16.308;2024-02-21T09:43:34;6.28;;;1.77;;
17826;SDS011;9038;48.208;16.308;2024-02-21T09:45:38;2.83;;;1.52;;
17826;SDS011;9038;48.208;16.308;2024-02-21T09:47:43;3.92;;;1.50;;
17826;SDS011;9038;48.208;16.308;2024-02-21T09:49:48;5.53;;;1.40;;
17826;SDS011;9038;48.208;16.308;2024-02-21T09:51:51;2.80;;;1.50;;
17826;SDS011;9038;48.208;16.308;2024-02-21T09:53:54;5.63;;;2.03;;
17826;SDS011;9038;48.208;16.308;2024-02-21T09:55:56;3.33;;;1.55;;
17826;SDS011;9038;48.208;16.308;2024-02-21T09:57:59;7.00;;;1.80;;
17826;SDS011;9038;48.208;16.308;2024-02-21T10:00:01;5.97;;;1.70;;
17826;SDS011;9038;48.208;16.308;2024-02-21T10:02:09;5.47;;;1.77;;
17826;SDS011;9038;48.208;16.308;2024-02-21T10:04:11;5.03;;;1.70;;
17826;SDS011;9038;48.208;16.308;2024-02-21T10:06:13;4.40;;;1.88;;
17826;SDS011;9038;48.208;16.308;2024-02-21T10:08:16;2.47;;;1.45;;
17826;SDS011;9038;48.208;16.308;2024-02-21T10:10:18;5.07;;;1.75;;
17826;SDS011;9038;48.208;16.308;2024-02-21T10:12:21;4.68;;;2.17;;
17826;SDS011;9038;48.208;16.308;2024-02-21T10:14:25;4.05;;;1.40;;
17826;SDS011;9038;48.208;16.308;2024-02-21T10:16:27;5.85;;;2.08;;
17826;SDS011;9038;48.208;16.308;2024-02-21T10:18:30;5.55;;;2.15;;
17826;SDS011;9038;48.208;16.308;2024-02-21T10:20:33;4.90;;;2.22;;
17826;SDS011;9038;48.208;16.308;2024-02-21T10:22:35;5.93;;;2.28;;
17826;SDS011;9038;48.208;16.308;2024-02-21T10:24:39;4.70;;;1.48;;
17826;SDS011;9038;48.208;16.308;2024-02-21T10:26:42;5.70;;;1.90;;
17826;SDS011;9038;48.208;16.308;2024-02-21T10:28:43;3.05;;;1.42;;
17826;SDS011;9038;48.208;16.308;2024-02-21T10:30:49;5.32;;;1.98;;
17826;SDS011;9038;48.208;16.308;2024-02-21T10:32:52;5.28;;;1.70;;
17826;SDS011;9038;48.208;16.308;2024-02-21T10:35:01;4.55;;;1.77;;
17826;SDS011;9038;48.208;16.308;2024-02-21T10:37:05;5.90;;;2.20;;
17826;SDS011;9038;48.208;16.308;2024-02-21T10:39:07;6.28;;;1.98;;
17826;SDS011;9038;48.208;16.308;2024-02-21T10:41:09;5.60;;;1.65;;
17826;SDS011;9038;48.208;16.308;2024-02-21T10:43:15;3.72;;;1.77;;
17826;SDS011;9038;48.208;16.308;2024-02-21T10:45:19;4.30;;;1.85;;
17826;SDS011;9038;48.208;16.308;2024-02-21T10:47:21;3.60;;;1.63;;
17826;SDS011;9038;48.208;16.308;2024-02-21T10:49:25;6.88;;;1.90;;
17826;SDS011;9038;48.208;16.308;2024-02-21T10:51:30;4.00;;;1.48;;
17826;SDS011;9038;48.208;16.308;2024-02-21T10:53:36;5.38;;;2.10;;
17826;SDS011;9038;48.208;16.308;2024-02-21T10:55:41;5.45;;;1.90;;
17826;SDS011;9038;48.208;16.308;2024-02-21T10:57:44;3.88;;;1.90;;
17826;SDS011;9038;48.208;16.308;2024-02-21T10:59:47;3.60;;;1.90;;
17826;SDS011;9038;48.208;16.308;2024-02-21T11:01:50;8.00;;;2.33;;
17826;SDS011;9038;48.208;16.308;2024-02-21T11:03:53;4.15;;;1.40;;
17826;SDS011;9038;48.208;16.308;2024-02-21T11:05:55;5.13;;;1.70;;
17826;SDS011;9038;48.208;16.308;2024-02-21T11:07:59;3.90;;;1.67;;
17826;SDS011;9038;48.208;16.308;2024-02-21T11:10:01;5.70;;;2.00;;
17826;SDS011;9038;48.208;16.308;2024-02-21T11:12:04;4.50;;;1.70;;
17826;SDS011;9038;48.208;16.308;2024-02-21T11:14:07;6.33;;;1.93;;
17826;SDS011;9038;48.208;16.308;2024-02-21T11:16:10;4.43;;;1.33;;
17826;SDS011;9038;48.208;16.308;2024-02-21T11:18:22;3.93;;;1.50;;
17826;SDS011;9038;48.208;16.308;2024-02-21T11:20:31;4.10;;;2.00;;
17826;SDS011;9038;48.208;16.308;2024-02-21T11:22:40;3.77;;;1.70;;
17826;SDS011;9038;48.208;16.308;2024-02-21T11:24:44;5.63;;;1.70;;
17826;SDS011;9038;48.208;16.308;2024-02-21T11:26:45;4.13;;;1.83;;
17826;SDS011;9038;48.208;16.308;2024-02-21T11:28:56;5.83;;;1.90;;
17826;SDS011;9038;48.208;16.308;2024-02-21T11:31:08;7.03;;;2.20;;
17826;SDS011;9038;48.208;16.308;2024-02-21T11:33:13;3.67;;;1.50;;
17826;SDS011;9038;48.208;16.308;2024-02-21T11:35:19;6.97;;;1.90;;
17826;SDS011;9038;48.208;16.308;2024-02-21T11:37:21;4.30;;;1.90;;
17826;SDS011;9038;48.208;16.308;2024-02-21T11:39:26;5.27;;;1.87;;
17826;SDS011;9038;48.208;16.308;2024-02-21T11:41:29;4.50;;;1.70;;
17826;SDS011;9038;48.208;16.308;2024-02-21T11:43:31;5.87;;;1.87;;
17826;SDS011;9038;48.208;16.308;2024-02-21T11:45:33;4.07;;;1.60;;
17826;SDS011;9038;48.208;16.308;2024-02-21T11:47:34;5.30;;;1.60;;
17826;SDS011;9038;48.208;16.308;2024-02-21T11:49:42;6.37;;;1.47;;
17826;SDS011;9038;48.208;16.308;2024-02-21T11:51:45;7.67;;;1.93;;
17826;SDS011;9038;48.208;16.308;2024-02-21T11:53:46;2.37;;;1.47;;
17826;SDS011;9038;48.208;16.308;2024-02-21T11:55:49;3.83;;;1.60;;
17826;SDS011;9038;48.208;16.308;2024-02-21T11:57:51;7.40;;;1.70;;
17826;SDS011;9038;48.208;16.308;2024-02-21T11:59:53;5.83;;;1.63;;
17826;SDS011;9038;48.208;16.308;2024-02-21T12:01:55;4.80;;;1.37;;
17826;SDS011;9038;48.208;16.308;2024-02-21T12:03:59;4.67;;;1.67;;
17826;SDS011;9038;48.208;16.308;2024-02-21T12:06:01;3.90;;;1.77;;
17826;SDS011;9038;48.208;16.308;2024-02-21T12:08:03;3.37;;;1.13;;
17826;SDS011;9038;48.208;16.308;2024-02-21T12:10:06;7.30;;;1.93;;
17826;SDS011;9038;48.208;16.308;2024-02-21T12:12:10;6.37;;;1.90;;
17826;SDS011;9038;48.208;16.308;2024-02-21T12:14:16;4.03;;;1.60;;
17826;SDS011;9038;48.208;16.308;2024-02-21T12:16:18;7.00;;;1.97;;
17826;SDS011;9038;48.208;16.308;2024-02-21T12:18:20;3.83;;;1.40;;
17826;SDS011;9038;48.208;16.308;2024-02-21T12:20:22;3.70;;;1.53;;